Time;durP1;ratioP1;P1;durP2;ratioP2;P2;SDS_P1;SDS_P2;PMS_P1;PMS_P2;Temp;Humidity;BMP_temperature;BMP_pressure;BME280_temperature;BME280_humidity;BME280_pressure;Samples;Min_cycle;Max_cycle;Signal;HPM_P1;HPM_P2
2022/12/29 00:00:09;;;;;;;93.13;47.40;;;10.80;98.60;;;;;;5036114;28;20206;-66
2022/12/29 00:02:40;;;;;;;108.07;48.30;;;10.80;98.60;;;;;;5035876;28;20284;-66
2022/12/29 00:05:07;;;;;;;94.57;45.90;;;10.80;98.60;;;;;;5035044;28;20271;-66
2022/12/29 00:07:35;;;;;;;91.33;45.57;;;10.80;98.60;;;;;;5036684;28;20280;-66
2022/12/29 00:10:02;;;;;;;98.57;49.23;;;10.80;98.50;;;;;;5033156;28;20229;-66
2022/12/29 00:15:36;;;;;;;97.10;46.37;;;10.80;98.50;;;;;;5036114;28;20292;-66
2022/12/29 00:18:02;;;;;;;100.77;45.77;;;10.80;98.60;;;;;;5033452;28;20210;-66
2022/12/29 00:37:10;;;;;;;112.20;48.90;;;10.70;98.70;;;;;;5034229;28;20595;-66
2022/12/29 00:45:09;;;;;;;117.80;50.80;;;10.80;98.80;;;;;;5032982;28;20212;-66
2022/12/29 00:47:36;;;;;;;124.63;51.97;;;10.80;98.70;;;;;;5033531;28;20200;-66
2022/12/29 00:50:04;;;;;;;102.77;48.57;;;10.80;98.70;;;;;;5031054;28;20230;-66
2022/12/29 00:52:31;;;;;;;103.63;50.60;;;10.70;98.70;;;;;;5036231;28;20215;-66
2022/12/29 00:54:57;;;;;;;105.57;48.53;;;10.70;98.80;;;;;;5036967;28;20585;-66
2022/12/29 00:57:24;;;;;;;114.60;52.20;;;10.70;98.80;;;;;;5034399;28;20232;-66
2022/12/29 00:59:51;;;;;;;108.67;52.23;;;10.80;98.90;;;;;;5034219;28;20289;-66
2022/12/29 01:02:19;;;;;;;107.73;50.53;;;10.80;98.90;;;;;;5030472;28;20261;-66
2022/12/29 01:04:46;;;;;;;101.23;49.93;;;10.80;98.90;;;;;;5034623;28;20247;-66
2022/12/29 01:07:15;;;;;;;112.63;53.53;;;10.80;98.80;;;;;;5035427;28;20304;-66
2022/12/29 01:12:42;;;;;;;114.03;52.87;;;10.80;98.90;;;;;;5038772;28;20203;-66
2022/12/29 01:15:11;;;;;;;113.57;50.57;;;10.80;98.80;;;;;;5036804;28;20676;-66
2022/12/29 01:17:38;;;;;;;107.50;49.67;;;10.80;98.80;;;;;;5033214;28;20205;-66
2022/12/29 01:20:05;;;;;;;108.20;49.73;;;10.80;98.80;;;;;;5046175;28;20220;-66
2022/12/29 01:22:33;;;;;;;106.13;50.00;;;10.80;98.80;;;;;;5038009;28;20208;-66
2022/12/29 01:24:59;;;;;;;115.77;50.37;;;10.80;98.90;;;;;;5037251;28;20657;-66
2022/12/29 01:27:27;;;;;;;95.47;46.80;;;10.80;98.90;;;;;;5037415;28;20221;-66
2022/12/29 01:29:54;;;;;;;94.03;47.37;;;10.80;98.90;;;;;;5031752;28;20723;-66
2022/12/29 01:32:21;;;;;;;107.97;48.17;;;10.80;98.90;;;;;;5030452;28;20251;-66
2022/12/29 01:34:48;;;;;;;106.13;49.07;;;10.80;98.90;;;;;;5030126;28;20202;-66
2022/12/29 01:37:15;;;;;;;108.87;48.93;;;10.80;98.90;;;;;;5033203;28;20206;-66
2022/12/29 01:39:43;;;;;;;110.53;48.70;;;10.80;98.90;;;;;;5031781;28;20214;-66
2022/12/29 01:42:17;;;;;;;90.27;43.47;;;10.80;98.90;;;;;;5040327;28;20513;-66
2022/12/29 01:44:48;;;;;;;81.97;43.07;;;10.80;99.00;;;;;;5037163;28;20230;-66
2022/12/29 01:47:30;;;;;;;98.13;46.20;;;10.80;98.90;;;;;;5029879;28;20203;-66
2022/12/29 01:50:02;;;;;;;91.03;46.23;;;10.80;98.90;;;;;;5028949;28;20279;-66
2022/12/29 01:52:33;;;;;;;94.17;46.53;;;10.80;98.90;;;;;;5031277;28;20291;-66
2022/12/29 01:55:03;;;;;;;105.97;47.90;;;10.80;98.90;;;;;;5033755;28;20286;-66
2022/12/29 01:57:35;;;;;;;100.37;47.23;;;10.80;98.90;;;;;;5032315;28;20280;-66
2022/12/29 02:00:09;;;;;;;109.70;49.83;;;10.80;98.90;;;;;;5031568;28;20283;-66
2022/12/29 02:02:44;;;;;;;111.33;49.77;;;10.80;98.90;;;;;;5035468;28;20194;-66
2022/12/29 02:05:18;;;;;;;117.33;49.93;;;10.80;98.90;;;;;;5036495;28;20259;-66
2022/12/29 02:07:46;;;;;;;109.50;50.23;;;10.80;98.90;;;;;;5033491;28;20217;-66
2022/12/29 02:10:13;;;;;;;102.50;48.57;;;10.80;98.90;;;;;;5034779;28;20300;-66
2022/12/29 02:12:40;;;;;;;108.77;49.20;;;10.80;98.90;;;;;;5033696;28;20608;-66
2022/12/29 02:15:08;;;;;;;110.70;47.27;;;10.80;98.90;;;;;;5034335;28;20263;-66
2022/12/29 02:17:42;;;;;;;124.57;51.73;;;10.70;98.90;;;;;;5032722;28;20202;-66
2022/12/29 02:20:50;;;;;;;110.40;51.27;;;10.70;98.90;;;;;;5031265;28;20298;-66
2022/12/29 02:23:59;;;;;;;106.13;50.00;;;10.80;99.00;;;;;;5043193;28;20218;-66
2022/12/29 02:27:05;;;;;;;106.77;48.60;;;10.70;98.90;;;;;;5034701;28;20741;-66
2022/12/29 02:29:48;;;;;;;98.97;45.73;;;10.70;99.00;;;;;;5029660;28;20635;-66
2022/12/29 02:32:37;;;;;;;107.00;49.03;;;10.70;99.00;;;;;;5033121;28;20692;-66
2022/12/29 02:35:14;;;;;;;122.80;50.67;;;10.70;99.00;;;;;;5019977;28;21034;-66
2022/12/29 02:37:54;;;;;;;105.43;48.90;;;10.70;99.00;;;;;;5033895;28;20590;-66
2022/12/29 02:40:33;;;;;;;112.60;46.70;;;10.70;99.00;;;;;;5028026;28;20272;-66
2022/12/29 02:43:14;;;;;;;110.50;49.03;;;10.70;99.00;;;;;;5035454;28;20309;-66
2022/12/29 02:46:27;;;;;;;96.67;46.50;;;10.70;99.00;;;;;;5033366;28;20208;-66
2022/12/29 02:49:01;;;;;;;119.73;49.00;;;10.70;99.00;;;;;;5029475;28;20205;-66
2022/12/29 02:51:46;;;;;;;127.43;51.73;;;10.70;99.00;;;;;;5013973;28;20788;-66
2022/12/29 02:57:01;;;;;;;98.57;45.17;;;10.70;98.90;;;;;;5052450;28;20284;-66
2022/12/29 02:59:29;;;;;;;109.53;47.53;;;10.70;99.00;;;;;;5030679;28;20207;-66
2022/12/29 03:02:19;;;;;;;99.80;47.40;;;10.70;99.00;;;;;;5037871;28;20208;-66
2022/12/29 03:04:52;;;;;;;97.17;46.47;;;10.70;99.00;;;;;;5031227;28;20217;-66
2022/12/29 03:07:32;;;;;;;94.03;43.60;;;10.70;99.00;;;;;;5034937;28;20238;-67
2022/12/29 03:10:31;;;;;;;97.23;45.43;;;10.70;99.00;;;;;;5031503;28;20218;-66
2022/12/29 03:16:37;;;;;;;108.90;49.93;;;10.70;99.10;;;;;;5035000;28;20206;-66
2022/12/29 03:19:30;;;;;;;110.33;50.20;;;10.70;99.10;;;;;;5033547;28;20229;-66
2022/12/29 03:25:17;;;;;;;122.50;50.03;;;10.70;99.10;;;;;;5037984;28;20314;-66
2022/12/29 03:28:06;;;;;;;119.73;51.80;;;10.70;99.10;;;;;;5048918;28;20652;-66
2022/12/29 03:30:41;;;;;;;107.63;50.00;;;10.70;99.10;;;;;;5024683;28;20230;-66
2022/12/29 03:33:14;;;;;;;127.17;50.77;;;10.70;99.10;;;;;;5035015;28;20685;-66
2022/12/29 03:35:46;;;;;;;123.43;50.17;;;10.70;99.10;;;;;;5038021;28;20206;-66
2022/12/29 03:38:19;;;;;;;106.83;52.03;;;10.70;99.00;;;;;;5034927;28;20658;-66
2022/12/29 03:40:55;;;;;;;130.47;53.37;;;10.70;99.10;;;;;;5036072;28;20245;-66
2022/12/29 03:43:25;;;;;;;112.10;48.97;;;10.70;99.00;;;;;;5040082;28;20277;-66
2022/12/29 03:45:52;;;;;;;104.30;49.83;;;10.70;99.00;;;;;;5035856;28;20202;-66
2022/12/29 03:48:19;;;;;;;100.60;47.50;;;10.70;99.00;;;;;;5030583;28;20537;-66
2022/12/29 03:50:48;;;;;;;101.17;45.23;;;10.70;99.10;;;;;;5031068;28;20218;-66
2022/12/29 03:53:16;;;;;;;108.50;48.13;;;10.70;99.10;;;;;;5041565;28;20207;-66
2022/12/29 03:55:45;;;;;;;102.93;46.63;;;10.70;99.10;;;;;;5030389;28;20268;-66
2022/12/29 03:58:12;;;;;;;99.50;45.80;;;10.70;99.10;;;;;;5031829;28;20600;-66
2022/12/29 04:00:53;;;;;;;101.93;46.03;;;10.70;99.10;;;;;;5029481;28;20215;-66
2022/12/29 04:03:20;;;;;;;99.73;46.07;;;10.70;99.10;;;;;;5046330;28;20268;-66
2022/12/29 04:05:47;;;;;;;101.17;46.13;;;10.70;99.10;;;;;;5033409;28;20269;-66
2022/12/29 04:08:14;;;;;;;101.17;47.07;;;10.70;99.10;;;;;;5030684;28;20590;-66
2022/12/29 04:10:42;;;;;;;96.17;46.10;;;10.70;99.10;;;;;;5037808;28;20706;-66
2022/12/29 04:13:09;;;;;;;115.40;45.30;;;10.70;99.10;;;;;;5035864;28;20234;-66
2022/12/29 04:15:36;;;;;;;90.87;41.87;;;10.70;99.10;;;;;;5033817;28;20210;-66
2022/12/29 04:18:03;;;;;;;129.43;46.87;;;10.70;99.00;;;;;;5033827;28;20204;-66
2022/12/29 04:23:17;;;;;;;125.30;51.80;;;10.70;98.90;;;;;;5035560;28;20248;-66
2022/12/29 04:25:46;;;;;;;118.10;50.87;;;10.70;98.90;;;;;;5034104;28;20204;-66
2022/12/29 04:28:15;;;;;;;111.60;51.43;;;10.60;99.00;;;;;;5030322;28;20293;-66
2022/12/29 04:30:47;;;;;;;124.03;51.97;;;10.60;99.00;;;;;;5034867;28;20321;-66
2022/12/29 04:33:21;;;;;;;117.07;50.47;;;10.60;99.10;;;;;;5036109;28;20513;-66
2022/12/29 04:35:49;;;;;;;106.10;49.13;;;10.60;99.10;;;;;;5033860;28;20275;-65
2022/12/29 04:38:16;;;;;;;102.63;49.00;;;10.60;99.20;;;;;;5016373;28;20207;-66
2022/12/29 04:40:46;;;;;;;111.07;51.33;;;10.60;99.20;;;;;;5038253;28;20229;-66
2022/12/29 04:43:14;;;;;;;118.97;52.13;;;10.60;99.20;;;;;;5033424;28;20244;-66
2022/12/29 04:46:00;;;;;;;113.63;49.13;;;10.70;99.30;;;;;;5034271;28;20272;-66
2022/12/29 04:48:34;;;;;;;107.40;50.90;;;10.70;99.30;;;;;;5032814;28;20307;-66
2022/12/29 04:51:10;;;;;;;125.87;50.90;;;10.70;99.30;;;;;;5033988;28;20281;-66
2022/12/29 04:53:38;;;;;;;114.13;51.57;;;10.70;99.30;;;;;;5038309;28;20263;-66
2022/12/29 04:56:07;;;;;;;114.50;51.50;;;10.70;99.30;;;;;;5034754;28;20201;-66
2022/12/29 04:58:35;;;;;;;122.00;52.53;;;10.70;99.30;;;;;;5032081;28;20219;-66
2022/12/29 05:01:03;;;;;;;116.17;50.07;;;10.70;99.30;;;;;;5034728;28;20270;-66
2022/12/29 05:03:30;;;;;;;128.70;53.13;;;10.70;99.30;;;;;;5036910;28;20296;-66
2022/12/29 05:05:57;;;;;;;123.80;54.73;;;10.70;99.30;;;;;;5032590;28;20651;-66
2022/12/29 05:08:25;;;;;;;111.73;50.90;;;10.70;99.30;;;;;;5034312;28;20229;-66
2022/12/29 05:10:57;;;;;;;115.73;51.47;;;10.70;99.30;;;;;;5041018;28;20646;-66
2022/12/29 05:13:25;;;;;;;117.20;51.27;;;10.70;99.30;;;;;;5035119;28;20823;-65
2022/12/29 05:15:53;;;;;;;118.37;48.70;;;10.70;99.30;;;;;;5030812;28;20627;-65
2022/12/29 05:18:22;;;;;;;113.57;49.37;;;10.70;99.20;;;;;;5027778;28;20592;-66
2022/12/29 05:20:50;;;;;;;115.23;51.37;;;10.70;99.10;;;;;;5035200;28;20712;-66
2022/12/29 05:23:19;;;;;;;121.33;49.27;;;10.70;99.40;;;;;;5036042;28;20208;-66
2022/12/29 05:25:52;;;;;;;107.33;49.37;;;10.70;99.10;;;;;;5032829;28;20207;-66
2022/12/29 05:28:37;;;;;;;113.23;48.07;;;10.70;99.20;;;;;;5033502;28;20537;-66
2022/12/29 05:31:11;;;;;;;109.97;51.53;;;10.70;99.20;;;;;;5032846;28;20233;-66
2022/12/29 05:33:38;;;;;;;122.20;51.93;;;10.70;99.20;;;;;;5034962;28;20541;-66
2022/12/29 05:36:07;;;;;;;115.97;50.20;;;10.70;99.20;;;;;;5035401;28;20214;-66
2022/12/29 05:38:36;;;;;;;121.73;52.30;;;10.70;99.20;;;;;;5031733;28;20210;-66
2022/12/29 05:41:04;;;;;;;103.53;47.33;;;10.70;99.30;;;;;;5034792;28;20203;-66
2022/12/29 05:43:54;;;;;;;113.37;50.90;;;10.70;99.30;;;;;;5031784;28;20654;-66
2022/12/29 05:46:38;;;;;;;115.40;50.77;;;10.70;99.30;;;;;;5029953;28;20233;-66
2022/12/29 05:49:17;;;;;;;116.67;50.50;;;10.70;99.30;;;;;;5032455;28;20577;-66
2022/12/29 05:51:54;;;;;;;108.10;49.47;;;10.70;99.30;;;;;;5036977;28;20723;-66
2022/12/29 05:54:22;;;;;;;113.87;49.80;;;10.70;99.30;;;;;;5032376;28;20638;-66
2022/12/29 05:56:49;;;;;;;107.13;50.03;;;10.70;99.30;;;;;;5031407;28;20210;-66
2022/12/29 05:59:16;;;;;;;116.63;49.37;;;10.70;99.30;;;;;;5028015;28;20263;-66
2022/12/29 06:01:44;;;;;;;113.20;51.57;;;10.70;99.20;;;;;;5033796;28;20203;-66
2022/12/29 06:04:11;;;;;;;121.67;51.77;;;10.70;99.20;;;;;;5033900;28;20210;-66
2022/12/29 06:06:39;;;;;;;109.93;49.43;;;10.70;99.00;;;;;;5035009;28;20276;-66
2022/12/29 06:09:12;;;;;;;120.30;52.03;;;10.70;99.00;;;;;;5032641;28;20209;-66
2022/12/29 06:11:39;;;;;;;111.07;50.67;;;10.70;99.00;;;;;;5037621;28;20618;-66
2022/12/29 06:14:07;;;;;;;124.83;51.47;;;10.70;99.10;;;;;;5031275;28;20312;-66
2022/12/29 06:16:34;;;;;;;104.73;48.60;;;10.60;99.10;;;;;;5031648;28;20673;-66
2022/12/29 06:19:04;;;;;;;106.33;49.93;;;10.60;99.20;;;;;;5031999;28;20544;-66
2022/12/29 06:21:31;;;;;;;110.83;48.83;;;10.60;99.20;;;;;;5036766;28;20279;-66
2022/12/29 06:24:00;;;;;;;110.50;48.97;;;10.60;99.30;;;;;;5034177;28;20222;-66
2022/12/29 06:26:27;;;;;;;105.03;49.33;;;10.60;99.20;;;;;;5032441;28;20284;-66
2022/12/29 06:28:55;;;;;;;108.13;49.93;;;10.60;99.10;;;;;;5030906;28;20680;-66
2022/12/29 06:31:22;;;;;;;103.60;49.87;;;10.60;99.10;;;;;;5036221;28;20226;-66
2022/12/29 06:33:50;;;;;;;109.90;52.63;;;10.60;99.20;;;;;;5037281;28;20595;-66
2022/12/29 06:36:17;;;;;;;121.53;53.97;;;10.50;99.20;;;;;;5037250;28;20639;-66
2022/12/29 06:38:44;;;;;;;115.07;51.20;;;10.50;99.30;;;;;;5036901;28;20609;-66
2022/12/29 06:41:14;;;;;;;109.00;48.60;;;10.50;99.30;;;;;;5034375;28;20250;-66
2022/12/29 06:43:59;;;;;;;114.03;53.23;;;10.50;99.30;;;;;;5038524;28;20213;-66
2022/12/29 06:46:44;;;;;;;115.27;51.60;;;10.50;99.40;;;;;;5034593;28;20203;-66
2022/12/29 06:49:11;;;;;;;113.03;49.90;;;10.40;99.40;;;;;;5036901;28;20201;-66
2022/12/29 06:51:38;;;;;;;119.73;51.03;;;10.40;99.50;;;;;;5041791;28;20222;-66
2022/12/29 06:54:05;;;;;;;112.03;50.73;;;10.40;99.50;;;;;;5040691;28;20216;-66
2022/12/29 06:56:32;;;;;;;122.50;52.23;;;10.40;99.60;;;;;;5038107;28;20202;-66
2022/12/29 06:59:03;;;;;;;112.47;49.37;;;10.40;99.60;;;;;;5035237;28;20265;-66
2022/12/29 07:01:30;;;;;;;128.33;53.03;;;10.40;99.60;;;;;;5035121;28;20240;-66
2022/12/29 07:03:57;;;;;;;112.83;51.17;;;10.40;99.70;;;;;;5039399;28;20710;-66
2022/12/29 07:06:24;;;;;;;101.83;49.57;;;10.50;99.80;;;;;;5036762;28;20202;-66
2022/12/29 07:08:54;;;;;;;102.20;51.17;;;10.50;99.80;;;;;;5036203;28;20272;-66
2022/12/29 07:11:22;;;;;;;105.30;50.27;;;10.50;99.70;;;;;;5037243;28;20606;-66
2022/12/29 07:13:49;;;;;;;104.93;49.50;;;10.50;99.70;;;;;;5034178;28;20234;-66
2022/12/29 07:16:16;;;;;;;107.90;50.43;;;10.50;99.50;;;;;;5034396;28;20218;-66
2022/12/29 07:18:43;;;;;;;105.90;50.40;;;10.50;99.50;;;;;;5032994;28;20209;-66
2022/12/29 07:21:11;;;;;;;110.53;51.37;;;10.50;99.50;;;;;;5038456;28;20217;-66
2022/12/29 07:23:38;;;;;;;111.00;51.80;;;10.40;99.40;;;;;;5031893;28;20210;-66
2022/12/29 07:26:08;;;;;;;113.87;51.90;;;10.40;99.50;;;;;;5035480;28;20662;-66
2022/12/29 07:28:35;;;;;;;101.50;51.10;;;10.40;99.60;;;;;;5035759;28;20206;-66
2022/12/29 07:31:03;;;;;;;116.13;52.67;;;10.40;99.60;;;;;;5017223;28;20217;-66
2022/12/29 07:33:31;;;;;;;116.40;52.90;;;10.40;99.70;;;;;;5031587;28;20213;-66
2022/12/29 07:35:59;;;;;;;108.80;52.97;;;10.40;99.70;;;;;;5037254;28;20514;-66
2022/12/29 07:38:26;;;;;;;114.90;51.70;;;10.40;99.80;;;;;;5031318;28;20209;-66
2022/12/29 07:40:57;;;;;;;98.50;50.53;;;10.50;99.80;;;;;;5038400;28;20632;-66
2022/12/29 07:43:24;;;;;;;104.00;52.00;;;10.50;99.80;;;;;;5041198;28;20210;-66
2022/12/29 07:46:11;;;;;;;99.83;49.63;;;10.60;99.70;;;;;;5035428;28;20224;-66
2022/12/29 07:48:58;;;;;;;94.27;49.77;;;10.60;99.60;;;;;;5025874;28;20619;-66
2022/12/29 07:51:25;;;;;;;92.70;48.93;;;10.60;99.60;;;;;;5033991;28;20290;-66
2022/12/29 07:53:52;;;;;;;99.30;49.53;;;10.60;99.70;;;;;;5036689;28;20213;-66
2022/12/29 07:56:19;;;;;;;91.50;47.50;;;10.60;99.70;;;;;;5035238;28;20201;-66
2022/12/29 07:58:46;;;;;;;95.30;47.50;;;10.60;99.60;;;;;;5034563;28;20647;-65
2022/12/29 08:01:13;;;;;;;96.53;48.57;;;10.60;99.60;;;;;;5033052;28;20567;-66
2022/12/29 08:03:41;;;;;;;90.67;50.00;;;10.60;99.50;;;;;;5039032;28;20212;-66
2022/12/29 08:06:11;;;;;;;95.53;47.63;;;10.70;99.50;;;;;;5036381;28;20195;-66
2022/12/29 08:08:38;;;;;;;96.33;47.37;;;10.60;99.50;;;;;;5036128;28;20198;-66
2022/12/29 08:11:05;;;;;;;95.07;47.43;;;10.70;99.50;;;;;;5039490;28;20216;-66
2022/12/29 08:13:32;;;;;;;89.33;47.37;;;10.70;99.50;;;;;;5034872;28;20257;-66
2022/12/29 08:15:59;;;;;;;95.07;47.23;;;10.70;99.50;;;;;;5036783;28;20198;-66
2022/12/29 08:18:26;;;;;;;85.03;45.20;;;10.70;99.50;;;;;;5035238;28;20213;-66
2022/12/29 08:20:53;;;;;;;89.40;47.30;;;10.70;99.40;;;;;;5038655;28;20595;-66
2022/12/29 08:23:21;;;;;;;88.63;45.40;;;10.70;99.40;;;;;;5036867;28;20658;-66
2022/12/29 08:25:57;;;;;;;87.20;45.27;;;10.70;99.40;;;;;;5037288;28;20213;-66
2022/12/29 08:28:25;;;;;;;88.90;48.77;;;10.80;99.40;;;;;;5027809;28;20212;-66
2022/12/29 08:30:52;;;;;;;94.57;47.40;;;10.80;99.40;;;;;;5035897;28;20214;-65
2022/12/29 08:33:19;;;;;;;86.37;45.73;;;10.80;99.40;;;;;;5037997;28;20195;-66
2022/12/29 08:35:46;;;;;;;88.40;46.60;;;10.80;99.40;;;;;;5035555;28;20205;-65
2022/12/29 08:38:16;;;;;;;80.97;47.73;;;10.80;99.30;;;;;;5034045;28;20201;-66
2022/12/29 08:40:43;;;;;;;96.80;47.50;;;10.80;99.20;;;;;;5033420;28;20192;-65
2022/12/29 08:43:10;;;;;;;89.87;46.90;;;10.80;99.20;;;;;;5033753;28;20198;-65
2022/12/29 08:45:42;;;;;;;86.93;47.33;;;10.80;99.20;;;;;;5035667;28;20193;-65
2022/12/29 08:48:09;;;;;;;87.47;49.10;;;10.90;99.20;;;;;;5036244;28;20259;-65
2022/12/29 08:50:36;;;;;;;97.97;49.67;;;10.90;99.20;;;;;;5034300;28;20232;-65
2022/12/29 08:53:03;;;;;;;93.20;47.40;;;10.90;99.10;;;;;;5037778;28;20252;-65
2022/12/29 08:55:30;;;;;;;95.20;47.13;;;10.90;99.10;;;;;;5037033;28;20673;-65
2022/12/29 08:57:57;;;;;;;99.80;49.10;;;10.90;99.20;;;;;;5031300;28;20288;-65
2022/12/29 09:00:25;;;;;;;86.63;46.27;;;10.90;99.10;;;;;;5033596;28;20198;-65
2022/12/29 09:02:52;;;;;;;92.77;47.97;;;11.00;99.00;;;;;;5033853;28;20543;-65
2022/12/29 09:05:19;;;;;;;100.23;48.50;;;11.00;99.00;;;;;;5036902;28;20209;-65
2022/12/29 09:07:46;;;;;;;89.00;47.97;;;11.00;99.00;;;;;;5032871;28;20523;-65
2022/12/29 09:10:14;;;;;;;101.50;49.73;;;11.00;98.90;;;;;;5034431;28;20225;-65
2022/12/29 09:12:41;;;;;;;82.73;45.47;;;11.00;98.80;;;;;;5035323;28;20305;-65
2022/12/29 09:15:08;;;;;;;95.87;48.33;;;11.00;98.80;;;;;;5036994;28;20587;-65
2022/12/29 09:17:44;;;;;;;110.50;50.50;;;11.00;98.80;;;;;;5033684;28;20272;-65
2022/12/29 09:20:12;;;;;;;94.53;48.17;;;10.90;98.80;;;;;;5033166;28;20210;-65
2022/12/29 09:22:40;;;;;;;100.93;49.27;;;10.90;98.80;;;;;;5032985;28;20218;-65
2022/12/29 09:25:08;;;;;;;104.87;49.47;;;10.90;98.80;;;;;;5037561;28;20267;-65
2022/12/29 09:27:36;;;;;;;114.43;51.27;;;10.90;98.80;;;;;;5034769;28;20202;-65
2022/12/29 09:30:06;;;;;;;110.50;52.63;;;10.90;98.80;;;;;;5034260;28;20203;-65
2022/12/29 09:32:34;;;;;;;111.67;50.23;;;10.90;98.90;;;;;;5036610;28;20295;-65
2022/12/29 09:35:09;;;;;;;101.67;50.10;;;10.90;99.00;;;;;;5037015;28;20201;-65
2022/12/29 09:37:36;;;;;;;106.53;49.77;;;11.00;99.00;;;;;;5036060;28;20241;-65
2022/12/29 09:40:06;;;;;;;103.73;50.47;;;11.00;99.00;;;;;;5034904;28;20209;-65
2022/12/29 09:42:43;;;;;;;98.80;49.97;;;11.00;98.90;;;;;;5032465;28;20202;-65
2022/12/29 09:45:15;;;;;;;114.47;50.43;;;11.00;98.90;;;;;;5032054;28;20508;-65
2022/12/29 09:47:43;;;;;;;106.57;52.47;;;11.00;98.80;;;;;;5034830;28;20285;-65
2022/12/29 09:50:25;;;;;;;101.70;50.63;;;11.00;98.60;;;;;;5032055;28;20201;-64
2022/12/29 09:53:17;;;;;;;96.33;49.37;;;11.00;98.60;;;;;;5039358;28;20225;-65
2022/12/29 09:55:54;;;;;;;119.17;51.67;;;11.00;98.70;;;;;;5035520;28;20209;-65
2022/12/29 09:58:30;;;;;;;104.83;48.77;;;11.00;98.80;;;;;;5033000;28;20208;-66
2022/12/29 10:01:17;;;;;;;104.63;50.10;;;11.00;98.80;;;;;;5034162;28;20647;-66
2022/12/29 10:03:53;;;;;;;118.57;53.30;;;11.00;98.80;;;;;;5041212;28;20196;-65
2022/12/29 10:06:42;;;;;;;109.37;50.53;;;11.10;98.90;;;;;;5038293;28;20198;-66
2022/12/29 10:09:42;;;;;;;117.10;51.70;;;11.10;98.80;;;;;;5039601;28;20194;-66
2022/12/29 10:12:28;;;;;;;122.33;52.77;;;11.10;98.80;;;;;;5037827;28;20663;-66
2022/12/29 10:15:04;;;;;;;117.20;51.80;;;11.10;98.80;;;;;;5036051;28;20314;-66
2022/12/29 10:17:40;;;;;;;109.03;51.53;;;11.10;98.70;;;;;;5037342;28;20212;-66
2022/12/29 10:20:36;;;;;;;123.97;51.87;;;11.10;98.70;;;;;;5039756;28;20528;-67
2022/12/29 10:23:40;;;;;;;124.93;53.10;;;11.10;98.60;;;;;;5041737;28;20655;-66
2022/12/29 10:26:14;;;;;;;132.80;55.13;;;11.10;98.70;;;;;;5037652;28;20213;-65
2022/12/29 10:28:57;;;;;;;117.50;52.47;;;11.00;98.70;;;;;;5033728;28;20210;-66
2022/12/29 10:31:31;;;;;;;111.97;52.90;;;11.10;98.80;;;;;;5035134;28;20222;-65
2022/12/29 10:34:03;;;;;;;122.30;52.97;;;11.10;98.80;;;;;;5040570;28;20201;-65
2022/12/29 10:36:42;;;;;;;125.33;53.30;;;11.10;98.90;;;;;;5038954;28;20326;-65
2022/12/29 10:39:30;;;;;;;110.17;51.50;;;11.10;99.00;;;;;;5039055;28;20641;-66
2022/12/29 10:42:13;;;;;;;118.07;52.77;;;11.10;99.00;;;;;;5036276;28;20205;-66
2022/12/29 10:44:41;;;;;;;112.90;51.43;;;11.20;99.10;;;;;;5037323;28;20646;-66
2022/12/29 10:47:23;;;;;;;116.93;50.40;;;11.20;99.10;;;;;;5035446;28;20289;-66
2022/12/29 10:49:50;;;;;;;109.40;47.20;;;11.30;99.10;;;;;;5035227;28;20213;-66
2022/12/29 10:52:20;;;;;;;92.73;47.70;;;11.30;99.00;;;;;;5044407;28;20299;-66
2022/12/29 10:55:02;;;;;;;93.93;47.97;;;11.40;99.00;;;;;;5037378;28;20207;-66
2022/12/29 10:57:35;;;;;;;88.20;45.50;;;11.50;99.10;;;;;;5029329;28;20214;-66
2022/12/29 11:00:13;;;;;;;84.83;43.57;;;11.60;99.00;;;;;;5036949;28;20202;-65
2022/12/29 11:02:53;;;;;;;82.47;40.73;;;11.70;99.00;;;;;;5035691;28;20556;-65
2022/12/29 11:05:32;;;;;;;76.07;39.57;;;11.80;98.80;;;;;;5041897;28;20198;-65
2022/12/29 11:08:11;;;;;;;83.30;43.97;;;11.90;98.50;;;;;;5035902;28;20292;-65
2022/12/29 11:10:43;;;;;;;92.13;43.90;;;11.90;98.20;;;;;;5042492;28;20222;-65
2022/12/29 11:13:19;;;;;;;72.13;38.10;;;12.00;98.30;;;;;;5038626;28;20569;-65
2022/12/29 11:15:48;;;;;;;74.70;39.57;;;12.10;98.30;;;;;;5034075;28;20529;-65
2022/12/29 11:18:20;;;;;;;78.27;40.67;;;12.10;98.30;;;;;;5034317;28;20199;-65
2022/12/29 11:20:49;;;;;;;66.93;37.00;;;12.20;98.30;;;;;;5035745;28;20203;-65
2022/12/29 11:23:34;;;;;;;67.93;35.67;;;12.30;98.30;;;;;;5040638;28;20306;-65
2022/12/29 11:26:15;;;;;;;68.97;38.80;;;12.40;98.20;;;;;;5036253;28;20205;-65
2022/12/29 11:28:46;;;;;;;64.07;35.33;;;12.50;98.10;;;;;;5035102;28;20202;-65
2022/12/29 11:31:17;;;;;;;57.50;31.90;;;12.60;98.00;;;;;;5038556;28;20228;-65
2022/12/29 11:33:44;;;;;;;51.53;28.77;;;12.70;97.90;;;;;;5041700;28;20281;-65
2022/12/29 11:36:22;;;;;;;47.87;29.13;;;12.80;97.80;;;;;;5036503;28;20205;-65
2022/12/29 11:38:54;;;;;;;48.20;28.93;;;12.90;97.60;;;;;;5034806;28;20217;-65
2022/12/29 11:41:30;;;;;;;45.90;28.40;;;12.90;97.20;;;;;;5038201;28;20302;-65
2022/12/29 11:44:00;;;;;;;48.53;28.23;;;13.00;96.80;;;;;;5034110;28;20203;-65
2022/12/29 11:46:34;;;;;;;41.27;25.93;;;13.00;96.50;;;;;;5034127;28;20213;-65
2022/12/29 11:49:02;;;;;;;40.37;27.13;;;13.00;95.70;;;;;;5035932;28;20229;-65
2022/12/29 11:51:43;;;;;;;45.53;26.87;;;13.00;95.30;;;;;;5037342;28;20646;-65
2022/12/29 11:54:21;;;;;;;43.73;27.27;;;12.90;95.00;;;;;;5038791;28;20202;-65
2022/12/29 11:56:49;;;;;;;41.03;27.30;;;12.90;95.00;;;;;;5035346;28;20236;-65
2022/12/29 11:59:31;;;;;;;43.33;26.97;;;12.90;95.00;;;;;;5036267;28;20536;-65
2022/12/29 12:02:02;;;;;;;41.90;28.47;;;12.90;95.10;;;;;;5033205;28;20213;-65
2022/12/29 12:04:35;;;;;;;46.03;28.17;;;12.80;95.10;;;;;;5038709;28;20218;-65
2022/12/29 12:07:17;;;;;;;47.47;27.87;;;12.80;95.10;;;;;;5038139;28;20213;-65
2022/12/29 12:09:47;;;;;;;43.20;27.07;;;12.70;95.10;;;;;;5035359;28;20206;-65
2022/12/29 12:12:43;;;;;;;42.53;27.43;;;12.70;95.20;;;;;;5041707;28;20226;-65
2022/12/29 12:15:21;;;;;;;45.90;27.97;;;12.70;95.20;;;;;;5032323;28;20205;-65
2022/12/29 12:18:30;;;;;;;43.67;28.73;;;12.70;95.30;;;;;;5025983;28;20213;-65
2022/12/29 12:21:04;;;;;;;45.23;28.30;;;12.70;95.40;;;;;;5035402;28;20218;-65
2022/12/29 12:23:42;;;;;;;46.27;27.27;;;12.70;95.50;;;;;;5035429;28;20209;-65
2022/12/29 12:26:27;;;;;;;42.27;26.63;;;12.70;95.60;;;;;;5034612;28;20604;-65
2022/12/29 12:29:13;;;;;;;48.37;30.30;;;12.70;95.60;;;;;;5033735;28;20560;-65
2022/12/29 12:32:01;;;;;;;47.90;29.17;;;12.70;95.70;;;;;;5035663;28;20535;-65
2022/12/29 12:34:38;;;;;;;47.77;27.63;;;12.70;95.60;;;;;;5037098;28;20199;-65
2022/12/29 12:37:39;;;;;;;49.27;30.00;;;12.60;95.60;;;;;;5035733;28;20197;-65
2022/12/29 12:40:34;;;;;;;43.20;28.77;;;12.60;95.50;;;;;;5038621;28;20229;-65
2022/12/29 12:43:32;;;;;;;48.73;29.97;;;12.50;95.60;;;;;;5032328;28;20207;-65
2022/12/29 12:46:36;;;;;;;53.17;30.30;;;12.50;95.70;;;;;;5035462;28;20221;-65
2022/12/29 12:49:18;;;;;;;49.20;29.17;;;12.50;95.70;;;;;;5032764;28;20713;-65
2022/12/29 12:52:22;;;;;;;46.33;28.97;;;12.40;95.80;;;;;;5039086;28;20204;-65
2022/12/29 12:55:11;;;;;;;47.30;30.07;;;12.40;95.80;;;;;;5035946;28;20482;-65
2022/12/29 12:57:48;;;;;;;43.73;29.67;;;12.40;95.90;;;;;;5032333;28;20213;-65
2022/12/29 13:00:23;;;;;;;46.77;29.53;;;12.30;95.90;;;;;;5035384;28;20278;-65
2022/12/29 13:03:30;;;;;;;52.60;30.03;;;12.30;95.90;;;;;;5035438;28;20209;-65
2022/12/29 13:06:12;;;;;;;52.60;28.83;;;12.30;96.00;;;;;;5033535;28;20295;-65
2022/12/29 13:08:57;;;;;;;44.43;28.73;;;12.30;96.10;;;;;;5034302;28;20210;-64
2022/12/29 13:11:36;;;;;;;53.30;31.37;;;12.30;96.10;;;;;;5036182;28;20193;-65
2022/12/29 13:14:24;;;;;;;48.57;30.10;;;12.20;96.20;;;;;;5032355;28;20596;-65
2022/12/29 13:17:15;;;;;;;43.20;26.93;;;12.20;96.30;;;;;;5032645;28;20209;-65
2022/12/29 13:20:21;;;;;;;41.20;26.23;;;12.20;96.20;;;;;;5036808;28;20265;-65
2022/12/29 13:23:01;;;;;;;47.50;27.17;;;12.30;96.20;;;;;;5037878;28;20555;-65
2022/12/29 13:25:37;;;;;;;42.27;25.77;;;12.20;96.00;;;;;;5030128;28;20215;-65
2022/12/29 13:28:15;;;;;;;45.87;26.73;;;12.10;95.90;;;;;;5033611;28;20288;-65
2022/12/29 13:31:04;;;;;;;40.60;26.10;;;12.10;95.90;;;;;;5033591;28;20198;-65
2022/12/29 13:33:49;;;;;;;41.30;25.87;;;12.00;95.90;;;;;;5032844;28;20265;-65